createdAt,value
2023-03-06T00:02:24.112Z,16.77
2023-03-06T00:04:53.375Z,17.63
2023-03-06T00:07:22.475Z,17.07
2023-03-06T00:09:51.302Z,15.90
2023-03-06T00:12:20.534Z,18.10
2023-03-06T00:14:49.414Z,16.47
2023-03-06T00:17:18.490Z,17.73
2023-03-06T00:19:48.666Z,17.27
2023-03-06T00:22:17.998Z,17.90
2023-03-06T00:24:46.927Z,17.03
2023-03-06T00:27:16.049Z,17.70
2023-03-06T00:29:44.893Z,17.90
2023-03-06T00:32:14.880Z,18.50
2023-03-06T00:34:43.707Z,16.67
2023-03-06T00:37:14.144Z,18.03
2023-03-06T00:39:43.024Z,17.43
2023-03-06T00:42:12.331Z,18.20
2023-03-06T00:44:41.123Z,17.53
2023-03-06T00:47:11.241Z,17.53
2023-03-06T00:49:40.350Z,17.43
2023-03-06T00:52:09.455Z,17.70
2023-03-06T00:54:39.871Z,18.67
2023-03-06T00:57:09.695Z,16.97
2023-03-06T00:59:38.500Z,18.40
2023-03-06T01:02:08.392Z,17.37
2023-03-06T01:04:37.508Z,17.40
2023-03-06T01:07:06.909Z,18.07
2023-03-06T01:09:35.726Z,17.53
2023-03-06T01:12:06.825Z,18.07
2023-03-06T01:14:37.283Z,17.30
2023-03-06T01:17:06.666Z,17.27
2023-03-06T01:19:35.539Z,17.33
2023-03-06T01:22:04.766Z,18.13
2023-03-06T01:24:33.752Z,18.07
2023-03-06T01:27:02.840Z,18.80
2023-03-06T01:29:33.111Z,18.40
2023-03-06T01:32:02.360Z,17.50
2023-03-06T01:34:31.306Z,17.60
2023-03-06T01:37:00.444Z,18.23
2023-03-06T01:39:31.546Z,17.10
2023-03-06T01:42:00.714Z,18.03
2023-03-06T01:44:29.544Z,17.73
2023-03-06T01:47:02.376Z,17.50
2023-03-06T01:49:37.604Z,18.07
2023-03-06T01:52:12.199Z,18.07
2023-03-06T01:54:49.674Z,18.90
2023-03-06T01:57:25.137Z,17.63
2023-03-06T02:00:03.651Z,16.60
2023-03-06T02:02:47.763Z,15.93
2023-03-06T02:05:16.741Z,16.70
2023-03-06T02:07:48.072Z,16.77
2023-03-06T02:10:19.799Z,16.03
2023-03-06T02:12:51.862Z,16.20
2023-03-06T02:15:24.893Z,15.50
2023-03-06T02:17:57.667Z,16.37
2023-03-06T02:20:35.185Z,16.37
2023-03-06T02:23:11.534Z,16.70
2023-03-06T02:25:46.451Z,16.60
2023-03-06T02:28:19.794Z,16.20
2023-03-06T02:30:53.174Z,22.93
2023-03-06T02:33:26.197Z,26.50
2023-03-06T02:35:57.659Z,20.63
2023-03-06T02:38:35.612Z,20.30
2023-03-06T02:41:09.573Z,19.30
2023-03-06T02:43:42.205Z,16.63
2023-03-06T02:46:11.648Z,16.33
2023-03-06T02:48:40.850Z,15.10
2023-03-06T02:51:09.640Z,15.43
2023-03-06T02:53:38.790Z,16.00
2023-03-06T02:56:09.814Z,14.97
2023-03-06T02:58:39.379Z,15.03
2023-03-06T03:01:09.132Z,15.37
2023-03-06T03:03:38.527Z,15.40
2023-03-06T03:06:08.817Z,15.03
2023-03-06T03:08:39.607Z,16.83
2023-03-06T03:11:10.840Z,16.97
2023-03-06T03:13:42.757Z,16.47
2023-03-06T03:16:17.312Z,17.53
2023-03-06T03:18:48.059Z,15.87
2023-03-06T03:21:19.440Z,15.67
2023-03-06T03:23:50.293Z,17.63
2023-03-06T03:26:23.415Z,16.87
2023-03-06T03:29:06.399Z,18.83
2023-03-06T03:31:35.290Z,18.77
2023-03-06T03:34:05.336Z,22.40
2023-03-06T03:36:38.407Z,20.30
2023-03-06T03:39:10.303Z,27.60
2023-03-06T03:41:41.089Z,27.00
2023-03-06T03:44:11.785Z,26.57
2023-03-06T03:46:40.729Z,21.93
2023-03-06T03:49:15.126Z,19.57
2023-03-06T03:51:46.070Z,18.57
2023-03-06T03:54:15.663Z,18.60
2023-03-06T03:56:48.932Z,15.83
2023-03-06T03:59:24.478Z,15.70
2023-03-06T04:02:04.765Z,16.87
2023-03-06T04:04:38.376Z,19.37
2023-03-06T04:07:07.820Z,17.43
2023-03-06T04:09:37.191Z,17.27
2023-03-06T04:12:08.868Z,16.03
2023-03-06T04:14:39.344Z,15.87
2023-03-06T04:17:08.577Z,15.53
2023-03-06T04:19:37.731Z,15.07
2023-03-06T04:22:06.775Z,16.73
2023-03-06T04:24:38.287Z,16.40
2023-03-06T04:27:08.604Z,16.47
2023-03-06T04:29:37.743Z,15.77
2023-03-06T04:32:07.487Z,15.27
2023-03-06T04:34:36.843Z,16.90
2023-03-06T04:37:06.340Z,16.77
2023-03-06T04:39:35.395Z,17.73
2023-03-06T04:42:04.219Z,17.43
2023-03-06T04:44:34.698Z,16.57
2023-03-06T04:47:03.613Z,17.07
2023-03-06T04:49:32.696Z,17.40
2023-03-06T04:52:01.454Z,15.97
2023-03-06T04:54:30.969Z,17.00
2023-03-06T04:56:59.854Z,16.67
2023-03-06T04:59:28.971Z,16.70
2023-03-06T05:01:59.320Z,17.60
2023-03-06T05:04:28.400Z,16.90
2023-03-06T05:06:57.267Z,16.90
2023-03-06T05:09:26.378Z,17.10
2023-03-06T05:11:55.140Z,17.10
2023-03-06T05:14:24.161Z,19.23
2023-03-06T05:16:52.971Z,24.23
2023-03-06T05:19:23.469Z,22.17
2023-03-06T05:21:52.244Z,22.27
2023-03-06T05:24:21.410Z,18.67
2023-03-06T05:26:50.216Z,17.53
2023-03-06T05:29:19.320Z,16.20
2023-03-06T05:31:48.272Z,16.43
2023-03-06T05:34:18.445Z,17.07
2023-03-06T05:36:48.567Z,16.80
2023-03-06T05:39:17.905Z,16.73
2023-03-06T05:41:46.655Z,17.60
2023-03-06T05:44:15.817Z,16.53
2023-03-06T05:46:44.645Z,17.17
2023-03-06T05:49:13.693Z,16.70
2023-03-06T05:51:42.521Z,17.90
2023-03-06T05:54:12.957Z,17.97
2023-03-06T05:56:42.889Z,17.57
2023-03-06T05:59:12.046Z,18.63
2023-03-06T06:01:40.898Z,27.60
2023-03-06T06:04:11.574Z,21.57
2023-03-06T06:06:40.393Z,24.60
2023-03-06T06:09:11.752Z,20.10
2023-03-06T06:11:43.670Z,20.93
2023-03-06T06:14:12.726Z,24.73
2023-03-06T06:16:42.960Z,26.83
2023-03-06T06:19:18.470Z,27.17
2023-03-06T06:21:48.815Z,33.00
2023-03-06T06:24:19.868Z,28.90
2023-03-06T06:26:51.892Z,26.47
2023-03-06T06:29:22.058Z,22.13
2023-03-06T06:31:51.299Z,21.73
2023-03-06T06:34:21.432Z,19.70
2023-03-06T06:36:53.409Z,18.87
2023-03-06T06:39:25.056Z,18.50
2023-03-06T06:42:14.507Z,19.03
2023-03-06T06:44:44.297Z,18.77
2023-03-06T06:47:28.424Z,19.23
2023-03-06T06:49:58.394Z,19.80
2023-03-06T06:52:27.268Z,18.57
2023-03-06T06:54:56.625Z,20.07
2023-03-06T06:57:27.031Z,20.00
2023-03-06T06:59:56.139Z,21.17
2023-03-06T07:02:25.103Z,20.80
2023-03-06T07:05:03.773Z,18.97
2023-03-06T07:07:35.585Z,18.30
2023-03-06T07:10:08.707Z,18.57
2023-03-06T07:12:39.090Z,18.97
2023-03-06T07:15:10.026Z,18.00
2023-03-06T07:17:38.918Z,16.90
2023-03-06T07:20:10.477Z,16.43
2023-03-06T07:22:50.312Z,16.73
2023-03-06T07:25:21.561Z,16.23
2023-03-06T07:27:54.779Z,19.77
2023-03-06T07:30:25.133Z,21.20
2023-03-06T07:32:55.724Z,19.97
2023-03-06T07:35:26.061Z,18.77
2023-03-06T07:37:55.579Z,21.57
2023-03-06T07:40:25.218Z,25.57
2023-03-06T07:43:12.970Z,25.10
2023-03-06T07:45:58.187Z,22.77
2023-03-06T07:48:27.437Z,18.60
2023-03-06T07:50:59.690Z,17.50
2023-03-06T07:53:29.249Z,18.58
2023-03-06T07:55:58.564Z,20.02
2023-03-06T07:58:29.056Z,16.80
2023-03-06T08:00:58.257Z,16.80
2023-03-06T08:03:27.053Z,15.93
2023-03-06T08:05:56.153Z,14.38
2023-03-06T08:08:24.950Z,14.85
2023-03-06T08:10:54.017Z,15.98
2023-03-06T08:13:22.799Z,16.08
2023-03-06T08:15:53.243Z,16.20
2023-03-06T08:18:22.056Z,15.85
2023-03-06T08:20:51.128Z,16.98
2023-03-06T08:23:19.959Z,16.73
2023-03-06T08:25:57.904Z,16.40
2023-03-06T08:28:27.162Z,15.23
2023-03-06T08:30:58.472Z,15.10
2023-03-06T08:33:28.221Z,16.73
2023-03-06T08:35:57.374Z,15.55
2023-03-06T08:38:26.182Z,14.90
2023-03-06T08:40:55.262Z,12.43
2023-03-06T08:43:24.099Z,12.48
2023-03-06T08:45:54.431Z,11.48
2023-03-06T08:48:24.986Z,10.98
2023-03-06T08:50:54.806Z,12.73
2023-03-06T08:53:40.374Z,12.57
2023-03-06T08:56:18.416Z,13.13
2023-03-06T08:58:48.590Z,11.43
2023-03-06T09:01:20.710Z,10.25
2023-03-06T09:03:51.495Z,9.98
2023-03-06T09:06:20.768Z,9.60
2023-03-06T09:08:51.568Z,8.30
2023-03-06T09:11:24.345Z,8.13
2023-03-06T09:13:54.575Z,9.18
2023-03-06T09:16:24.264Z,9.07
2023-03-06T09:18:54.497Z,10.10
2023-03-06T09:21:24.967Z,10.05
2023-03-06T09:23:53.938Z,10.95
2023-03-06T09:26:27.953Z,10.18
2023-03-06T09:29:01.838Z,9.52
2023-03-06T09:31:32.116Z,10.45
2023-03-06T09:34:02.321Z,11.10
2023-03-06T09:36:31.519Z,11.18
2023-03-06T09:39:00.310Z,10.80
2023-03-06T09:41:34.345Z,10.82
2023-03-06T09:44:08.666Z,11.55
2023-03-06T09:47:00.560Z,10.95
2023-03-06T09:49:54.422Z,33.10
2023-03-06T09:52:38.645Z,13.45
2023-03-06T09:55:14.170Z,22.92
2023-03-06T09:57:54.618Z,15.73
2023-03-06T10:00:31.893Z,13.13
2023-03-06T10:03:19.340Z,13.15
2023-03-06T10:05:56.311Z,21.27
2023-03-06T10:08:36.165Z,15.43
2023-03-06T10:11:11.161Z,20.15
2023-03-06T10:13:44.850Z,19.55
2023-03-06T10:16:28.576Z,12.52
2023-03-06T10:19:03.749Z,12.23
2023-03-06T10:21:48.501Z,12.88
2023-03-06T10:24:36.781Z,15.70
2023-03-06T10:27:21.749Z,19.02
2023-03-06T10:30:04.463Z,9.60
2023-03-06T10:32:49.286Z,14.88
2023-03-06T10:35:23.369Z,22.90
2023-03-06T10:38:03.063Z,14.10
2023-03-06T10:40:45.400Z,18.45
2023-03-06T10:43:14.404Z,11.02
2023-03-06T10:45:52.452Z,12.30
2023-03-06T10:48:24.889Z,10.00
2023-03-06T10:51:18.093Z,8.35
2023-03-06T10:54:00.091Z,10.43
2023-03-06T10:56:33.311Z,8.95
2023-03-06T10:59:13.496Z,11.68
2023-03-06T11:01:45.568Z,10.52
2023-03-06T11:04:26.058Z,11.07
2023-03-06T11:07:16.572Z,14.63
2023-03-06T11:10:08.628Z,12.55
2023-03-06T11:12:39.988Z,17.30
2023-03-06T11:15:22.308Z,9.85
2023-03-06T11:18:00.436Z,8.80
2023-03-06T11:20:50.047Z,9.85
2023-03-06T11:23:36.721Z,13.98
2023-03-06T11:26:31.596Z,11.52
2023-03-06T11:29:38.854Z,10.65
2023-03-06T11:32:16.365Z,11.73
2023-03-06T11:34:52.246Z,8.23
2023-03-06T11:37:47.137Z,9.07
2023-03-06T11:40:25.346Z,9.35
2023-03-06T11:43:10.901Z,8.45
2023-03-06T11:45:46.893Z,7.47
2023-03-06T11:48:26.320Z,8.23
2023-03-06T11:51:06.496Z,8.18
2023-03-06T11:53:40.440Z,8.98
2023-03-06T11:56:31.880Z,9.52
2023-03-06T11:59:21.285Z,8.60
2023-03-06T12:02:02.735Z,8.82
2023-03-06T12:05:02.238Z,8.82
2023-03-06T12:07:35.368Z,9.52
2023-03-06T12:10:20.441Z,9.88
2023-03-06T12:16:36.361Z,9.35
2023-03-06T12:19:30.207Z,9.80
2023-03-06T12:22:29.659Z,10.65
2023-03-06T12:25:25.749Z,10.60
2023-03-06T12:28:15.415Z,11.60
2023-03-06T12:31:33.526Z,11.88
2023-03-06T12:34:19.951Z,12.80
2023-03-06T12:37:16.386Z,14.45
2023-03-06T12:40:15.225Z,15.10
2023-03-06T12:43:21.845Z,14.38
2023-03-06T12:45:54.817Z,14.52
2023-03-06T12:48:30.370Z,14.68
2023-03-06T12:51:01.085Z,14.57
2023-03-06T12:53:33.392Z,15.00
2023-03-06T12:56:05.050Z,14.45
2023-03-06T12:58:49.448Z,13.70
2023-03-06T13:01:44.203Z,14.13
2023-03-06T13:04:49.395Z,14.13
2023-03-06T13:07:38.402Z,14.52
2023-03-06T13:10:16.877Z,14.82
2023-03-06T13:13:01.050Z,16.92
2023-03-06T13:15:41.962Z,14.73
2023-03-06T13:18:49.156Z,14.88
2023-03-06T13:22:10.151Z,14.95
2023-03-06T13:24:40.385Z,15.88
2023-03-06T13:27:12.896Z,15.48
2023-03-06T13:30:26.758Z,17.73
2023-03-06T13:32:57.173Z,14.82
2023-03-06T13:35:55.496Z,16.75
2023-03-06T13:38:56.057Z,16.45
2023-03-06T13:41:58.236Z,20.13
2023-03-06T13:44:51.139Z,16.65
2023-03-06T13:48:15.881Z,16.60
2023-03-06T13:50:45.638Z,17.00
2023-03-06T13:54:09.557Z,18.23
2023-03-06T13:57:17.459Z,19.00
2023-03-06T14:00:42.376Z,16.45
2023-03-06T14:03:58.304Z,16.08
2023-03-06T14:07:11.282Z,17.92
2023-03-06T14:09:46.067Z,17.67
2023-03-06T14:12:24.106Z,17.77
2023-03-06T14:14:58.842Z,17.58
2023-03-06T14:17:32.952Z,17.17
2023-03-06T14:20:13.616Z,16.15
2023-03-06T14:22:42.762Z,17.42
2023-03-06T14:25:21.712Z,16.05
2023-03-06T14:27:58.190Z,16.98
2023-03-06T14:30:29.491Z,17.27
2023-03-06T14:32:58.453Z,18.65
2023-03-06T14:35:31.150Z,18.58
2023-03-06T14:38:04.613Z,17.77
2023-03-06T14:40:37.754Z,18.20
2023-03-06T14:43:24.591Z,18.75
2023-03-06T14:45:57.968Z,19.58
2023-03-06T14:48:39.597Z,19.55
2023-03-06T14:51:16.913Z,19.75
2023-03-06T14:53:48.955Z,20.10
2023-03-06T14:56:21.132Z,20.42
2023-03-06T14:58:58.497Z,20.27
2023-03-06T15:01:34.009Z,21.73
2023-03-06T15:04:08.055Z,20.92
2023-03-06T15:06:44.054Z,21.42
2023-03-06T15:09:20.943Z,21.95
2023-03-06T15:11:57.043Z,22.80
2023-03-06T15:14:37.115Z,22.98
2023-03-06T15:17:29.320Z,22.73
2023-03-06T15:20:00.535Z,22.85
2023-03-06T15:22:37.438Z,22.85
2023-03-06T15:25:27.675Z,23.25
2023-03-06T15:27:59.170Z,22.80
2023-03-06T15:30:33.488Z,23.25
2023-03-06T15:33:25.885Z,23.63
2023-03-06T15:35:57.521Z,23.65
2023-03-06T15:38:36.162Z,23.85
2023-03-06T15:41:07.840Z,23.00
2023-03-06T15:43:40.346Z,22.88
2023-03-06T15:46:12.361Z,21.48
2023-03-06T15:48:51.798Z,21.92
2023-03-06T15:51:20.830Z,23.48
2023-03-06T15:53:50.253Z,23.38
2023-03-06T15:56:25.728Z,22.98
2023-03-06T15:58:55.445Z,23.83
2023-03-06T16:01:26.235Z,25.23
2023-03-06T16:03:55.459Z,23.70
2023-03-06T16:06:26.092Z,24.27
2023-03-06T16:08:55.601Z,25.08
2023-03-06T16:11:41.866Z,24.20
2023-03-06T16:14:23.704Z,22.98
2023-03-06T16:16:55.174Z,22.98
2023-03-06T16:19:27.830Z,23.52
2023-03-06T16:21:59.027Z,23.30
2023-03-06T16:24:29.197Z,23.38
2023-03-06T16:27:01.621Z,22.55
2023-03-06T16:29:31.502Z,23.35
2023-03-06T16:32:02.084Z,24.00
2023-03-06T16:34:31.333Z,24.10
2023-03-06T16:37:00.150Z,24.30
2023-03-06T16:39:29.344Z,24.15
2023-03-06T16:41:58.375Z,24.30
2023-03-06T16:44:27.467Z,25.15
2023-03-06T16:46:56.289Z,23.73
2023-03-06T16:49:26.961Z,25.55
2023-03-06T16:51:56.356Z,23.88
2023-03-06T16:54:26.327Z,24.88
2023-03-06T16:56:55.206Z,24.25
2023-03-06T16:59:25.025Z,23.65
2023-03-06T17:01:53.914Z,24.50
2023-03-06T17:04:22.981Z,24.55
2023-03-06T17:06:53.376Z,23.65
2023-03-06T17:09:22.662Z,24.95
2023-03-06T17:11:51.473Z,25.85
2023-03-06T17:14:20.640Z,25.50
2023-03-06T17:16:49.480Z,26.70
2023-03-06T17:19:18.552Z,26.00
2023-03-06T17:21:47.355Z,24.90
2023-03-06T17:24:17.823Z,25.88
2023-03-06T17:26:48.519Z,25.85
2023-03-06T17:29:17.823Z,24.38
2023-03-06T17:31:48.126Z,25.25
2023-03-06T17:34:17.243Z,26.38
2023-03-06T17:36:46.051Z,25.48
2023-03-06T17:39:16.307Z,26.15
2023-03-06T17:41:46.641Z,26.80
2023-03-06T17:44:16.511Z,25.75
2023-03-06T17:46:45.852Z,27.00
2023-03-06T17:49:15.363Z,26.60
2023-03-06T17:51:44.153Z,25.85
2023-03-06T17:54:13.236Z,25.23
2023-03-06T17:56:42.317Z,25.55
2023-03-06T17:59:13.596Z,24.13
2023-03-06T18:01:43.532Z,22.92
2023-03-06T18:04:13.067Z,23.48
2023-03-06T18:06:41.880Z,22.67
2023-03-06T18:09:10.998Z,21.70
2023-03-06T18:11:39.912Z,22.75
2023-03-06T18:14:09.797Z,23.50
2023-03-06T18:16:40.183Z,25.17
2023-03-06T18:19:12.499Z,26.48
2023-03-06T18:21:41.742Z,29.38
2023-03-06T18:24:12.378Z,32.72
2023-03-06T18:26:43.348Z,30.17
2023-03-06T18:29:12.642Z,29.05
2023-03-06T18:31:44.807Z,25.33
2023-03-06T18:34:17.838Z,24.38
2023-03-06T18:36:50.742Z,24.23
2023-03-06T18:39:21.475Z,22.77
2023-03-06T18:41:51.771Z,24.02
2023-03-06T18:44:21.104Z,23.88
2023-03-06T18:46:51.421Z,23.60
2023-03-06T18:49:20.535Z,22.83
2023-03-06T18:51:51.717Z,23.85
2023-03-06T18:54:20.892Z,23.63
2023-03-06T18:56:49.731Z,23.63
2023-03-06T18:59:19.088Z,23.05
2023-03-06T19:01:48.749Z,21.77
2023-03-06T19:04:19.266Z,17.65
2023-03-06T19:06:48.177Z,16.83
2023-03-06T19:09:18.697Z,17.73
2023-03-06T19:11:47.655Z,18.08
2023-03-06T19:14:17.257Z,16.90
2023-03-06T19:16:46.267Z,14.15
2023-03-06T19:19:15.320Z,13.82
2023-03-06T19:21:45.581Z,12.82
2023-03-06T19:24:14.693Z,13.02
2023-03-06T19:26:43.750Z,13.50
2023-03-06T19:29:13.125Z,13.13
2023-03-06T19:31:42.925Z,13.93
2023-03-06T19:34:12.312Z,16.25
2023-03-06T19:36:41.153Z,15.50
2023-03-06T19:39:13.083Z,16.45
2023-03-06T19:41:41.884Z,16.52
2023-03-06T19:44:12.292Z,15.45
2023-03-06T19:46:41.233Z,17.25
2023-03-06T19:49:16.967Z,16.45
2023-03-06T19:51:46.024Z,14.20
2023-03-06T19:54:16.587Z,15.55
2023-03-06T19:56:45.361Z,14.10
2023-03-06T19:59:14.470Z,13.07
2023-03-06T20:01:43.393Z,12.02
2023-03-06T20:04:12.676Z,12.88
2023-03-06T20:06:41.539Z,12.38
2023-03-06T20:09:12.393Z,13.25
2023-03-06T20:11:42.563Z,12.57
2023-03-06T20:14:14.148Z,11.15
2023-03-06T20:16:42.954Z,11.45
2023-03-06T20:19:12.899Z,11.57
2023-03-06T20:21:41.711Z,11.82
2023-03-06T20:24:16.758Z,12.40
2023-03-06T20:26:48.967Z,10.80
2023-03-06T20:29:18.113Z,10.60
2023-03-06T20:31:47.215Z,10.50
2023-03-06T20:34:16.416Z,10.85
2023-03-06T20:36:45.219Z,11.02
2023-03-06T20:39:18.579Z,11.48
2023-03-06T20:41:49.511Z,10.65
2023-03-06T20:44:20.447Z,11.98
2023-03-06T20:46:49.274Z,11.23
2023-03-06T20:49:18.773Z,11.50
2023-03-06T20:51:47.617Z,12.48
2023-03-06T20:54:17.861Z,12.93
2023-03-06T20:56:50.416Z,12.90
2023-03-06T20:59:20.269Z,12.40
2023-03-06T21:01:49.161Z,13.68
2023-03-06T21:04:18.601Z,12.68
2023-03-06T21:06:48.020Z,13.45
2023-03-06T21:09:18.624Z,13.27
2023-03-06T21:11:49.359Z,13.35
2023-03-06T21:14:18.453Z,12.95
2023-03-06T21:16:47.236Z,13.02
2023-03-06T21:19:16.880Z,12.82
2023-03-06T21:21:45.666Z,13.18
2023-03-06T21:24:16.684Z,12.52
2023-03-06T21:26:45.540Z,12.95
2023-03-06T21:29:16.036Z,13.80
2023-03-06T21:31:44.906Z,12.95
2023-03-06T21:34:14.032Z,12.85
2023-03-06T21:36:43.595Z,13.75
2023-03-06T21:39:12.940Z,13.70
2023-03-06T21:41:42.565Z,13.38
2023-03-06T21:44:12.206Z,14.10
2023-03-06T21:46:42.443Z,13.18
2023-03-06T21:49:11.569Z,13.73
2023-03-06T21:51:40.548Z,14.90
2023-03-06T21:54:09.851Z,15.43
2023-03-06T21:56:38.650Z,14.38
2023-03-06T21:59:07.719Z,14.77
2023-03-06T22:01:36.671Z,15.93
2023-03-06T22:04:07.250Z,17.30
2023-03-06T22:06:36.200Z,17.85
2023-03-06T22:09:05.407Z,17.02
2023-03-06T22:11:37.244Z,19.50
2023-03-06T22:14:07.023Z,19.88
2023-03-06T22:16:35.885Z,20.17
2023-03-06T22:19:07.291Z,20.92
2023-03-06T22:21:36.107Z,19.90
2023-03-06T22:24:05.857Z,20.75
2023-03-06T22:26:34.644Z,21.85
2023-03-06T22:29:03.745Z,22.05
2023-03-06T22:31:32.678Z,21.48
2023-03-06T22:34:02.687Z,22.17
2023-03-06T22:36:33.086Z,21.92
2023-03-06T22:39:04.230Z,21.42
2023-03-06T22:41:33.269Z,22.17
2023-03-06T22:44:03.942Z,19.95
2023-03-06T22:46:34.114Z,20.85
2023-03-06T22:49:03.844Z,20.30
2023-03-06T22:51:34.123Z,20.58
2023-03-06T22:54:03.238Z,20.92
2023-03-06T22:56:32.574Z,20.15
2023-03-06T22:59:01.741Z,21.83
2023-03-06T23:01:33.025Z,20.33
2023-03-06T23:04:04.403Z,22.73
2023-03-06T23:06:38.014Z,20.15
2023-03-06T23:09:09.800Z,21.30
2023-03-06T23:11:56.950Z,22.00
2023-03-06T23:14:49.506Z,22.83
2023-03-06T23:17:37.156Z,22.93
2023-03-06T23:20:24.955Z,23.00
2023-03-06T23:23:13.745Z,21.90
2023-03-06T23:25:43.690Z,22.02
2023-03-06T23:28:13.154Z,22.15
2023-03-06T23:30:43.591Z,21.90
2023-03-06T23:33:12.715Z,22.33
2023-03-06T23:35:43.541Z,21.58
2023-03-06T23:38:13.901Z,22.07
2023-03-06T23:40:43.903Z,21.93
2023-03-06T23:43:12.742Z,21.92
2023-03-06T23:45:41.763Z,23.90
2023-03-06T23:48:11.581Z,22.70
2023-03-06T23:50:41.354Z,22.40
2023-03-06T23:53:10.145Z,23.35
2023-03-06T23:55:44.226Z,23.70
2023-03-06T23:58:15.590Z,22.37
